Terminal Aerodrome Forecast
Issued by NWS

Home | Current Version | Previous Version | Text Only | Print | Product List | Glossary On
Versions: 1 2 3 4 5 6 7 8 9 10 11 12 13 14 15 16 17
000
FTUS45 KGGW 012300
TAFSDY
TAF
KSDY 012323Z 0200/0224 17005KT P6SM FEW150 SCT250
     FM021100 VRB05KT P6SM VCSH SCT060 OVC090
     FM021400 34011KT 4SM -SN SCT009 OVC014
     FM022000 35009KT P6SM VCSH BKN015
      AMD LTD TO CLD VIS AND WIND=

USA.gov is the U.S. government's official web portal to all federal, state and local government web resources and services.